sensor_id;sensor_type;location;lat;lon;timestamp;P1;durP1;ratioP1;P2;durP2;ratioP2
8319;SDS011;4197;42.130;24.746;2022-11-13T00:01:16;7.93;;;5.83;;
8319;SDS011;4197;42.130;24.746;2022-11-13T00:03:46;10.03;;;6.10;;
8319;SDS011;4197;42.130;24.746;2022-11-13T00:06:15;9.03;;;6.23;;
8319;SDS011;4197;42.130;24.746;2022-11-13T00:08:43;9.13;;;7.03;;
8319;SDS011;4197;42.130;24.746;2022-11-13T00:11:12;8.70;;;6.60;;
8319;SDS011;4197;42.130;24.746;2022-11-13T00:13:43;9.40;;;6.63;;
8319;SDS011;4197;42.130;24.746;2022-11-13T00:16:14;6.80;;;6.07;;
8319;SDS011;4197;42.130;24.746;2022-11-13T00:18:44;7.90;;;6.53;;
8319;SDS011;4197;42.130;24.746;2022-11-13T00:21:13;8.63;;;6.50;;
8319;SDS011;4197;42.130;24.746;2022-11-13T00:23:43;7.73;;;6.30;;
8319;SDS011;4197;42.130;24.746;2022-11-13T00:26:12;8.83;;;6.83;;
8319;SDS011;4197;42.130;24.746;2022-11-13T00:28:42;7.83;;;6.60;;
8319;SDS011;4197;42.130;24.746;2022-11-13T00:31:14;7.77;;;6.57;;
8319;SDS011;4197;42.130;24.746;2022-11-13T00:33:42;8.73;;;7.20;;
8319;SDS011;4197;42.130;24.746;2022-11-13T00:36:30;10.03;;;6.53;;
8319;SDS011;4197;42.130;24.746;2022-11-13T00:38:58;8.30;;;6.20;;
8319;SDS011;4197;42.130;24.746;2022-11-13T00:41:26;8.10;;;6.53;;
8319;SDS011;4197;42.130;24.746;2022-11-13T00:43:54;9.37;;;7.00;;
8319;SDS011;4197;42.130;24.746;2022-11-13T00:46:24;8.53;;;6.67;;
8319;SDS011;4197;42.130;24.746;2022-11-13T00:48:52;10.43;;;6.97;;
8319;SDS011;4197;42.130;24.746;2022-11-13T00:51:20;9.03;;;6.80;;
8319;SDS011;4197;42.130;24.746;2022-11-13T00:53:49;9.27;;;7.30;;
8319;SDS011;4197;42.130;24.746;2022-11-13T00:56:17;9.70;;;7.40;;
8319;SDS011;4197;42.130;24.746;2022-11-13T00:58:45;7.97;;;7.00;;
8319;SDS011;4197;42.130;24.746;2022-11-13T01:01:15;9.33;;;7.57;;
8319;SDS011;4197;42.130;24.746;2022-11-13T01:03:46;8.63;;;7.20;;
8319;SDS011;4197;42.130;24.746;2022-11-13T01:06:16;9.43;;;7.30;;
8319;SDS011;4197;42.130;24.746;2022-11-13T01:08:46;9.23;;;7.37;;
8319;SDS011;4197;42.130;24.746;2022-11-13T01:11:15;9.13;;;7.50;;
8319;SDS011;4197;42.130;24.746;2022-11-13T01:13:47;10.83;;;8.40;;
8319;SDS011;4197;42.130;24.746;2022-11-13T01:16:16;9.37;;;7.77;;
8319;SDS011;4197;42.130;24.746;2022-11-13T01:18:47;10.73;;;7.87;;
8319;SDS011;4197;42.130;24.746;2022-11-13T01:21:16;11.00;;;8.40;;
8319;SDS011;4197;42.130;24.746;2022-11-13T01:23:46;11.33;;;7.97;;
8319;SDS011;4197;42.130;24.746;2022-11-13T01:26:15;11.90;;;8.70;;
8319;SDS011;4197;42.130;24.746;2022-11-13T01:28:44;10.90;;;7.97;;
8319;SDS011;4197;42.130;24.746;2022-11-13T01:31:14;11.77;;;8.40;;
8319;SDS011;4197;42.130;24.746;2022-11-13T01:33:44;11.10;;;8.13;;
8319;SDS011;4197;42.130;24.746;2022-11-13T01:36:15;14.13;;;8.97;;
8319;SDS011;4197;42.130;24.746;2022-11-13T01:38:44;16.20;;;9.07;;
8319;SDS011;4197;42.130;24.746;2022-11-13T01:41:15;10.57;;;8.07;;
8319;SDS011;4197;42.130;24.746;2022-11-13T01:43:49;12.33;;;8.47;;
8319;SDS011;4197;42.130;24.746;2022-11-13T01:46:23;11.57;;;8.17;;
8319;SDS011;4197;42.130;24.746;2022-11-13T01:48:55;10.83;;;7.83;;
8319;SDS011;4197;42.130;24.746;2022-11-13T01:51:30;9.47;;;7.67;;
8319;SDS011;4197;42.130;24.746;2022-11-13T01:54:03;9.60;;;7.77;;
8319;SDS011;4197;42.130;24.746;2022-11-13T01:56:36;14.33;;;8.80;;
8319;SDS011;4197;42.130;24.746;2022-11-13T01:59:05;10.07;;;7.57;;
8319;SDS011;4197;42.130;24.746;2022-11-13T02:01:38;11.30;;;8.20;;
8319;SDS011;4197;42.130;24.746;2022-11-13T02:04:06;11.83;;;8.70;;
8319;SDS011;4197;42.130;24.746;2022-11-13T02:06:37;13.63;;;8.87;;
8319;SDS011;4197;42.130;24.746;2022-11-13T02:09:09;12.00;;;8.13;;
8319;SDS011;4197;42.130;24.746;2022-11-13T02:11:39;11.43;;;8.80;;
8319;SDS011;4197;42.130;24.746;2022-11-13T02:14:08;12.97;;;8.53;;
8319;SDS011;4197;42.130;24.746;2022-11-13T02:16:38;15.13;;;8.23;;
8319;SDS011;4197;42.130;24.746;2022-11-13T02:19:09;12.70;;;8.87;;
8319;SDS011;4197;42.130;24.746;2022-11-13T02:21:46;12.67;;;8.50;;
8319;SDS011;4197;42.130;24.746;2022-11-13T02:24:23;10.37;;;8.13;;
8319;SDS011;4197;42.130;24.746;2022-11-13T02:26:55;12.33;;;7.87;;
8319;SDS011;4197;42.130;24.746;2022-11-13T02:29:28;11.70;;;8.07;;
8319;SDS011;4197;42.130;24.746;2022-11-13T02:31:56;13.17;;;8.47;;
8319;SDS011;4197;42.130;24.746;2022-11-13T02:34:24;11.43;;;8.27;;
8319;SDS011;4197;42.130;24.746;2022-11-13T02:36:52;11.47;;;7.80;;
8319;SDS011;4197;42.130;24.746;2022-11-13T02:39:20;10.90;;;8.30;;
8319;SDS011;4197;42.130;24.746;2022-11-13T02:41:50;13.27;;;8.70;;
8319;SDS011;4197;42.130;24.746;2022-11-13T02:44:18;12.80;;;8.00;;
8319;SDS011;4197;42.130;24.746;2022-11-13T02:46:46;10.83;;;7.80;;
8319;SDS011;4197;42.130;24.746;2022-11-13T02:49:14;13.13;;;8.57;;
8319;SDS011;4197;42.130;24.746;2022-11-13T02:51:42;13.57;;;9.13;;
8319;SDS011;4197;42.130;24.746;2022-11-13T02:54:10;12.07;;;8.27;;
8319;SDS011;4197;42.130;24.746;2022-11-13T02:56:42;11.47;;;8.40;;
8319;SDS011;4197;42.130;24.746;2022-11-13T02:59:12;14.90;;;8.90;;
8319;SDS011;4197;42.130;24.746;2022-11-13T03:01:40;12.23;;;7.97;;
8319;SDS011;4197;42.130;24.746;2022-11-13T03:04:08;12.47;;;8.83;;
8319;SDS011;4197;42.130;24.746;2022-11-13T03:06:37;11.63;;;8.40;;
8319;SDS011;4197;42.130;24.746;2022-11-13T03:09:05;11.10;;;8.03;;
8319;SDS011;4197;42.130;24.746;2022-11-13T03:11:33;11.33;;;8.63;;
8319;SDS011;4197;42.130;24.746;2022-11-13T03:14:01;12.47;;;8.33;;
8319;SDS011;4197;42.130;24.746;2022-11-13T03:16:30;12.37;;;8.93;;
8319;SDS011;4197;42.130;24.746;2022-11-13T03:19:00;11.10;;;8.00;;
8319;SDS011;4197;42.130;24.746;2022-11-13T03:21:29;14.33;;;8.63;;
8319;SDS011;4197;42.130;24.746;2022-11-13T03:23:57;12.70;;;8.43;;
8319;SDS011;4197;42.130;24.746;2022-11-13T03:26:25;11.50;;;8.53;;
8319;SDS011;4197;42.130;24.746;2022-11-13T03:28:54;11.03;;;8.50;;
8319;SDS011;4197;42.130;24.746;2022-11-13T03:31:22;12.50;;;9.00;;
8319;SDS011;4197;42.130;24.746;2022-11-13T03:33:52;16.10;;;8.40;;
8319;SDS011;4197;42.130;24.746;2022-11-13T03:36:20;14.07;;;8.67;;
8319;SDS011;4197;42.130;24.746;2022-11-13T03:38:48;15.10;;;9.23;;
8319;SDS011;4197;42.130;24.746;2022-11-13T03:41:16;12.00;;;8.47;;
8319;SDS011;4197;42.130;24.746;2022-11-13T03:43:44;12.37;;;8.63;;
8319;SDS011;4197;42.130;24.746;2022-11-13T03:46:13;14.43;;;9.93;;
8319;SDS011;4197;42.130;24.746;2022-11-13T03:48:41;12.47;;;9.23;;
8319;SDS011;4197;42.130;24.746;2022-11-13T03:51:10;14.50;;;9.93;;
8319;SDS011;4197;42.130;24.746;2022-11-13T03:53:38;15.30;;;10.27;;
8319;SDS011;4197;42.130;24.746;2022-11-13T03:56:07;13.37;;;9.50;;
8319;SDS011;4197;42.130;24.746;2022-11-13T03:58:35;13.30;;;9.50;;
8319;SDS011;4197;42.130;24.746;2022-11-13T04:01:05;12.80;;;9.23;;
8319;SDS011;4197;42.130;24.746;2022-11-13T04:03:34;13.00;;;9.90;;
8319;SDS011;4197;42.130;24.746;2022-11-13T04:06:02;15.37;;;10.57;;
8319;SDS011;4197;42.130;24.746;2022-11-13T04:08:32;15.37;;;10.70;;
8319;SDS011;4197;42.130;24.746;2022-11-13T04:11:10;14.17;;;10.07;;
8319;SDS011;4197;42.130;24.746;2022-11-13T04:13:39;16.63;;;10.13;;
8319;SDS011;4197;42.130;24.746;2022-11-13T04:16:07;13.47;;;10.07;;
8319;SDS011;4197;42.130;24.746;2022-11-13T04:18:35;16.60;;;10.17;;
8319;SDS011;4197;42.130;24.746;2022-11-13T04:21:04;15.23;;;10.87;;
8319;SDS011;4197;42.130;24.746;2022-11-13T04:23:33;18.30;;;12.23;;
8319;SDS011;4197;42.130;24.746;2022-11-13T04:26:01;15.43;;;10.97;;
8319;SDS011;4197;42.130;24.746;2022-11-13T04:28:29;16.30;;;10.77;;
8319;SDS011;4197;42.130;24.746;2022-11-13T04:30:58;14.23;;;10.80;;
8319;SDS011;4197;42.130;24.746;2022-11-13T04:33:26;13.93;;;10.47;;
8319;SDS011;4197;42.130;24.746;2022-11-13T04:35:54;12.73;;;10.10;;
8319;SDS011;4197;42.130;24.746;2022-11-13T04:38:22;13.27;;;9.87;;
8319;SDS011;4197;42.130;24.746;2022-11-13T04:40:52;15.13;;;11.13;;
8319;SDS011;4197;42.130;24.746;2022-11-13T04:43:40;15.37;;;10.83;;
8319;SDS011;4197;42.130;24.746;2022-11-13T04:46:07;15.30;;;10.67;;
8319;SDS011;4197;42.130;24.746;2022-11-13T04:48:35;16.47;;;10.83;;
8319;SDS011;4197;42.130;24.746;2022-11-13T04:51:04;17.20;;;10.90;;
8319;SDS011;4197;42.130;24.746;2022-11-13T04:53:32;19.07;;;11.30;;
8319;SDS011;4197;42.130;24.746;2022-11-13T04:56:02;14.57;;;10.67;;
8319;SDS011;4197;42.130;24.746;2022-11-13T04:58:31;16.23;;;10.30;;
8319;SDS011;4197;42.130;24.746;2022-11-13T05:00:59;16.63;;;11.17;;
8319;SDS011;4197;42.130;24.746;2022-11-13T05:03:27;16.17;;;11.23;;
8319;SDS011;4197;42.130;24.746;2022-11-13T05:06:00;17.17;;;11.43;;
8319;SDS011;4197;42.130;24.746;2022-11-13T05:08:29;16.70;;;11.13;;
8319;SDS011;4197;42.130;24.746;2022-11-13T05:10:57;15.20;;;10.97;;
8319;SDS011;4197;42.130;24.746;2022-11-13T05:13:27;41.00;;;23.47;;
8319;SDS011;4197;42.130;24.746;2022-11-13T05:16:00;55.20;;;26.57;;
8319;SDS011;4197;42.130;24.746;2022-11-13T05:18:30;44.50;;;23.50;;
8319;SDS011;4197;42.130;24.746;2022-11-13T05:20:59;52.87;;;26.43;;
8319;SDS011;4197;42.130;24.746;2022-11-13T05:23:27;33.13;;;17.80;;
8319;SDS011;4197;42.130;24.746;2022-11-13T05:25:59;23.27;;;14.27;;
8319;SDS011;4197;42.130;24.746;2022-11-13T05:28:30;20.10;;;13.93;;
8319;SDS011;4197;42.130;24.746;2022-11-13T05:31:02;23.17;;;13.77;;
8319;SDS011;4197;42.130;24.746;2022-11-13T05:33:31;23.40;;;14.70;;
8319;SDS011;4197;42.130;24.746;2022-11-13T05:36:00;24.07;;;15.30;;
8319;SDS011;4197;42.130;24.746;2022-11-13T05:38:29;22.87;;;15.30;;
8319;SDS011;4197;42.130;24.746;2022-11-13T05:41:01;22.40;;;14.83;;
8319;SDS011;4197;42.130;24.746;2022-11-13T05:43:31;29.27;;;16.40;;
8319;SDS011;4197;42.130;24.746;2022-11-13T05:46:00;27.17;;;16.83;;
8319;SDS011;4197;42.130;24.746;2022-11-13T05:48:30;30.30;;;18.27;;
8319;SDS011;4197;42.130;24.746;2022-11-13T05:51:01;40.63;;;22.30;;
8319;SDS011;4197;42.130;24.746;2022-11-13T05:53:30;25.27;;;15.70;;
8319;SDS011;4197;42.130;24.746;2022-11-13T05:55:59;20.43;;;13.97;;
8319;SDS011;4197;42.130;24.746;2022-11-13T05:58:28;21.57;;;13.90;;
8319;SDS011;4197;42.130;24.746;2022-11-13T06:01:05;22.63;;;14.67;;
8319;SDS011;4197;42.130;24.746;2022-11-13T06:03:35;18.53;;;13.37;;
8319;SDS011;4197;42.130;24.746;2022-11-13T06:06:05;24.33;;;14.60;;
8319;SDS011;4197;42.130;24.746;2022-11-13T06:08:34;19.00;;;12.67;;
8319;SDS011;4197;42.130;24.746;2022-11-13T06:11:03;19.07;;;13.00;;
8319;SDS011;4197;42.130;24.746;2022-11-13T06:13:33;16.47;;;12.93;;
8319;SDS011;4197;42.130;24.746;2022-11-13T06:16:02;18.73;;;13.40;;
8319;SDS011;4197;42.130;24.746;2022-11-13T06:18:33;20.77;;;15.17;;
8319;SDS011;4197;42.130;24.746;2022-11-13T06:21:02;22.40;;;15.17;;
8319;SDS011;4197;42.130;24.746;2022-11-13T06:23:32;23.23;;;15.47;;
8319;SDS011;4197;42.130;24.746;2022-11-13T06:26:01;23.20;;;15.03;;
8319;SDS011;4197;42.130;24.746;2022-11-13T06:28:31;21.73;;;15.37;;
8319;SDS011;4197;42.130;24.746;2022-11-13T06:31:01;25.20;;;16.37;;
8319;SDS011;4197;42.130;24.746;2022-11-13T06:33:30;22.03;;;15.63;;
8319;SDS011;4197;42.130;24.746;2022-11-13T06:36:01;24.27;;;16.07;;
8319;SDS011;4197;42.130;24.746;2022-11-13T06:38:30;21.50;;;15.17;;
8319;SDS011;4197;42.130;24.746;2022-11-13T06:40:59;18.93;;;13.80;;
8319;SDS011;4197;42.130;24.746;2022-11-13T06:43:28;18.77;;;14.40;;
8319;SDS011;4197;42.130;24.746;2022-11-13T06:45:57;18.80;;;14.07;;
8319;SDS011;4197;42.130;24.746;2022-11-13T06:48:25;20.10;;;14.60;;
8319;SDS011;4197;42.130;24.746;2022-11-13T06:50:54;19.30;;;13.43;;
8319;SDS011;4197;42.130;24.746;2022-11-13T06:53:23;18.87;;;13.97;;
8319;SDS011;4197;42.130;24.746;2022-11-13T06:55:51;19.73;;;13.10;;
8319;SDS011;4197;42.130;24.746;2022-11-13T06:58:20;20.60;;;13.87;;
8319;SDS011;4197;42.130;24.746;2022-11-13T07:00:48;18.03;;;12.93;;
8319;SDS011;4197;42.130;24.746;2022-11-13T07:03:16;16.47;;;11.57;;
8319;SDS011;4197;42.130;24.746;2022-11-13T07:05:46;14.43;;;10.47;;
8319;SDS011;4197;42.130;24.746;2022-11-13T07:08:15;16.47;;;12.13;;
8319;SDS011;4197;42.130;24.746;2022-11-13T07:10:50;18.07;;;12.23;;
8319;SDS011;4197;42.130;24.746;2022-11-13T07:13:19;16.03;;;10.87;;
8319;SDS011;4197;42.130;24.746;2022-11-13T07:15:48;14.17;;;10.63;;
8319;SDS011;4197;42.130;24.746;2022-11-13T07:18:16;16.63;;;11.50;;
8319;SDS011;4197;42.130;24.746;2022-11-13T07:20:49;15.90;;;11.73;;
8319;SDS011;4197;42.130;24.746;2022-11-13T07:23:17;17.57;;;11.47;;
8319;SDS011;4197;42.130;24.746;2022-11-13T07:25:47;16.37;;;12.10;;
8319;SDS011;4197;42.130;24.746;2022-11-13T07:28:15;17.23;;;12.60;;
8319;SDS011;4197;42.130;24.746;2022-11-13T07:30:43;13.93;;;10.90;;
8319;SDS011;4197;42.130;24.746;2022-11-13T07:33:11;16.40;;;11.00;;
8319;SDS011;4197;42.130;24.746;2022-11-13T07:35:41;15.17;;;10.80;;
8319;SDS011;4197;42.130;24.746;2022-11-13T07:38:09;17.20;;;11.83;;
8319;SDS011;4197;42.130;24.746;2022-11-13T07:40:37;14.57;;;10.37;;
8319;SDS011;4197;42.130;24.746;2022-11-13T07:43:07;15.33;;;11.10;;
8319;SDS011;4197;42.130;24.746;2022-11-13T07:45:35;13.80;;;10.53;;
8319;SDS011;4197;42.130;24.746;2022-11-13T07:48:03;15.17;;;10.77;;
8319;SDS011;4197;42.130;24.746;2022-11-13T07:50:34;18.33;;;11.93;;
8319;SDS011;4197;42.130;24.746;2022-11-13T07:53:04;18.03;;;11.20;;
8319;SDS011;4197;42.130;24.746;2022-11-13T07:55:34;16.60;;;12.47;;
8319;SDS011;4197;42.130;24.746;2022-11-13T07:58:03;14.53;;;11.60;;
8319;SDS011;4197;42.130;24.746;2022-11-13T08:00:33;14.83;;;11.53;;
8319;SDS011;4197;42.130;24.746;2022-11-13T08:03:05;15.43;;;11.40;;
8319;SDS011;4197;42.130;24.746;2022-11-13T08:05:35;17.07;;;12.13;;
8319;SDS011;4197;42.130;24.746;2022-11-13T08:08:04;17.00;;;13.33;;
8319;SDS011;4197;42.130;24.746;2022-11-13T08:10:33;17.67;;;12.47;;
8319;SDS011;4197;42.130;24.746;2022-11-13T08:13:03;16.70;;;13.03;;
8319;SDS011;4197;42.130;24.746;2022-11-13T08:15:34;17.07;;;13.07;;
8319;SDS011;4197;42.130;24.746;2022-11-13T08:18:03;18.10;;;14.60;;
8319;SDS011;4197;42.130;24.746;2022-11-13T08:20:32;18.27;;;13.83;;
8319;SDS011;4197;42.130;24.746;2022-11-13T08:23:01;17.83;;;14.00;;
8319;SDS011;4197;42.130;24.746;2022-11-13T08:25:31;19.50;;;13.33;;
8319;SDS011;4197;42.130;24.746;2022-11-13T08:28:00;17.70;;;13.80;;
8319;SDS011;4197;42.130;24.746;2022-11-13T08:30:28;18.93;;;15.03;;
8319;SDS011;4197;42.130;24.746;2022-11-13T08:32:57;20.43;;;15.70;;
8319;SDS011;4197;42.130;24.746;2022-11-13T08:35:25;23.80;;;18.20;;
8319;SDS011;4197;42.130;24.746;2022-11-13T08:37:59;22.53;;;17.30;;
8319;SDS011;4197;42.130;24.746;2022-11-13T08:40:28;22.73;;;16.83;;
8319;SDS011;4197;42.130;24.746;2022-11-13T08:43:00;28.57;;;17.93;;
8319;SDS011;4197;42.130;24.746;2022-11-13T08:45:29;25.50;;;17.43;;
8319;SDS011;4197;42.130;24.746;2022-11-13T08:47:59;25.20;;;17.70;;
8319;SDS011;4197;42.130;24.746;2022-11-13T08:50:28;23.37;;;18.37;;
8319;SDS011;4197;42.130;24.746;2022-11-13T08:52:58;21.13;;;16.73;;
8319;SDS011;4197;42.130;24.746;2022-11-13T08:55:27;24.47;;;17.30;;
8319;SDS011;4197;42.130;24.746;2022-11-13T08:57:56;24.53;;;18.80;;
8319;SDS011;4197;42.130;24.746;2022-11-13T09:00:25;24.90;;;17.50;;
8319;SDS011;4197;42.130;24.746;2022-11-13T09:02:54;24.00;;;17.17;;
8319;SDS011;4197;42.130;24.746;2022-11-13T09:05:25;25.50;;;18.40;;
8319;SDS011;4197;42.130;24.746;2022-11-13T09:07:54;23.33;;;18.03;;
8319;SDS011;4197;42.130;24.746;2022-11-13T09:10:24;25.87;;;18.40;;
8319;SDS011;4197;42.130;24.746;2022-11-13T09:12:56;30.70;;;23.63;;
8319;SDS011;4197;42.130;24.746;2022-11-13T09:15:24;33.73;;;25.87;;
8319;SDS011;4197;42.130;24.746;2022-11-13T09:17:55;34.13;;;24.37;;
8319;SDS011;4197;42.130;24.746;2022-11-13T09:20:25;35.93;;;25.57;;
8319;SDS011;4197;42.130;24.746;2022-11-13T09:22:57;27.27;;;21.67;;
8319;SDS011;4197;42.130;24.746;2022-11-13T09:25:26;28.23;;;21.27;;
8319;SDS011;4197;42.130;24.746;2022-11-13T09:28:02;28.23;;;20.13;;
8319;SDS011;4197;42.130;24.746;2022-11-13T09:30:31;26.43;;;19.80;;
8319;SDS011;4197;42.130;24.746;2022-11-13T09:32:59;31.60;;;23.10;;
8319;SDS011;4197;42.130;24.746;2022-11-13T09:35:30;35.73;;;27.33;;
8319;SDS011;4197;42.130;24.746;2022-11-13T09:38:02;35.73;;;25.07;;
8319;SDS011;4197;42.130;24.746;2022-11-13T09:40:38;36.40;;;27.10;;
8319;SDS011;4197;42.130;24.746;2022-11-13T09:43:13;23.92;;;18.23;;
8319;SDS011;4197;42.130;24.746;2022-11-13T09:45:51;29.57;;;19.77;;
8319;SDS011;4197;42.130;24.746;2022-11-13T09:48:26;22.17;;;18.20;;
8319;SDS011;4197;42.130;24.746;2022-11-13T09:51:05;24.67;;;17.67;;
8319;SDS011;4197;42.130;24.746;2022-11-13T09:53:39;26.02;;;17.83;;
8319;SDS011;4197;42.130;24.746;2022-11-13T09:56:21;26.15;;;18.30;;
8319;SDS011;4197;42.130;24.746;2022-11-13T09:59:00;26.45;;;17.30;;
8319;SDS011;4197;42.130;24.746;2022-11-13T10:01:46;21.23;;;16.60;;
8319;SDS011;4197;42.130;24.746;2022-11-13T10:04:22;21.90;;;16.35;;
8319;SDS011;4197;42.130;24.746;2022-11-13T10:07:04;22.98;;;17.67;;
8319;SDS011;4197;42.130;24.746;2022-11-13T10:09:45;21.48;;;16.42;;
8319;SDS011;4197;42.130;24.746;2022-11-13T10:12:25;22.95;;;15.98;;
8319;SDS011;4197;42.130;24.746;2022-11-13T10:14:55;21.67;;;16.25;;
8319;SDS011;4197;42.130;24.746;2022-11-13T10:17:30;19.63;;;15.45;;
8319;SDS011;4197;42.130;24.746;2022-11-13T10:20:06;19.02;;;14.32;;
8319;SDS011;4197;42.130;24.746;2022-11-13T10:22:43;17.90;;;14.15;;
8319;SDS011;4197;42.130;24.746;2022-11-13T10:25:16;23.17;;;16.60;;
8319;SDS011;4197;42.130;24.746;2022-11-13T10:27:48;23.83;;;16.05;;
8319;SDS011;4197;42.130;24.746;2022-11-13T10:30:20;18.70;;;15.45;;
8319;SDS011;4197;42.130;24.746;2022-11-13T10:32:48;19.17;;;14.88;;
8319;SDS011;4197;42.130;24.746;2022-11-13T10:38:25;19.92;;;16.15;;
8319;SDS011;4197;42.130;24.746;2022-11-13T10:41:06;20.83;;;16.05;;
8319;SDS011;4197;42.130;24.746;2022-11-13T10:43:47;19.33;;;15.25;;
8319;SDS011;4197;42.130;24.746;2022-11-13T10:46:19;21.00;;;16.15;;
8319;SDS011;4197;42.130;24.746;2022-11-13T10:48:48;21.80;;;17.00;;
8319;SDS011;4197;42.130;24.746;2022-11-13T10:51:21;25.27;;;17.95;;
8319;SDS011;4197;42.130;24.746;2022-11-13T10:53:52;21.70;;;16.38;;
8319;SDS011;4197;42.130;24.746;2022-11-13T10:56:24;20.48;;;15.48;;
8319;SDS011;4197;42.130;24.746;2022-11-13T10:58:58;23.08;;;15.75;;
8319;SDS011;4197;42.130;24.746;2022-11-13T11:01:28;22.50;;;16.60;;
8319;SDS011;4197;42.130;24.746;2022-11-13T11:03:57;22.42;;;17.25;;
8319;SDS011;4197;42.130;24.746;2022-11-13T11:06:31;20.40;;;16.45;;
8319;SDS011;4197;42.130;24.746;2022-11-13T11:09:22;22.80;;;18.00;;
8319;SDS011;4197;42.130;24.746;2022-11-13T11:12:00;22.30;;;17.58;;
8319;SDS011;4197;42.130;24.746;2022-11-13T11:14:58;21.92;;;17.45;;
8319;SDS011;4197;42.130;24.746;2022-11-13T11:17:38;20.03;;;17.03;;
8319;SDS011;4197;42.130;24.746;2022-11-13T11:20:16;21.50;;;15.73;;
8319;SDS011;4197;42.130;24.746;2022-11-13T11:22:51;20.57;;;16.43;;
8319;SDS011;4197;42.130;24.746;2022-11-13T11:25:30;21.95;;;16.15;;
8319;SDS011;4197;42.130;24.746;2022-11-13T11:28:03;20.88;;;17.20;;
8319;SDS011;4197;42.130;24.746;2022-11-13T11:30:39;20.73;;;16.63;;
8319;SDS011;4197;42.130;24.746;2022-11-13T11:33:14;19.88;;;16.25;;
8319;SDS011;4197;42.130;24.746;2022-11-13T11:35:48;21.83;;;16.90;;
8319;SDS011;4197;42.130;24.746;2022-11-13T11:38:23;20.15;;;16.52;;
8319;SDS011;4197;42.130;24.746;2022-11-13T11:40:57;24.02;;;16.35;;
8319;SDS011;4197;42.130;24.746;2022-11-13T11:43:37;22.60;;;17.85;;
8319;SDS011;4197;42.130;24.746;2022-11-13T11:46:10;24.38;;;18.27;;
8319;SDS011;4197;42.130;24.746;2022-11-13T11:48:39;22.60;;;18.83;;
8319;SDS011;4197;42.130;24.746;2022-11-13T11:51:11;24.40;;;20.67;;
8319;SDS011;4197;42.130;24.746;2022-11-13T11:53:48;25.87;;;18.17;;
8319;SDS011;4197;42.130;24.746;2022-11-13T11:56:26;24.07;;;19.50;;
8319;SDS011;4197;42.130;24.746;2022-11-13T12:05:10;21.57;;;17.50;;
8319;SDS011;4197;42.130;24.746;2022-11-13T12:07:53;23.73;;;17.50;;
8319;SDS011;4197;42.130;24.746;2022-11-13T12:10:36;23.85;;;19.20;;
8319;SDS011;4197;42.130;24.746;2022-11-13T12:13:16;21.83;;;17.30;;
8319;SDS011;4197;42.130;24.746;2022-11-13T12:15:54;24.17;;;18.87;;
8319;SDS011;4197;42.130;24.746;2022-11-13T12:18:31;24.15;;;19.05;;
8319;SDS011;4197;42.130;24.746;2022-11-13T12:21:09;24.17;;;18.13;;
8319;SDS011;4197;42.130;24.746;2022-11-13T12:23:51;24.42;;;18.52;;
8319;SDS011;4197;42.130;24.746;2022-11-13T12:26:30;27.27;;;20.60;;
8319;SDS011;4197;42.130;24.746;2022-11-13T12:29:08;28.13;;;20.45;;
8319;SDS011;4197;42.130;24.746;2022-11-13T12:31:54;26.83;;;20.10;;
8319;SDS011;4197;42.130;24.746;2022-11-13T12:34:32;31.07;;;20.87;;
8319;SDS011;4197;42.130;24.746;2022-11-13T12:37:08;25.90;;;20.40;;
8319;SDS011;4197;42.130;24.746;2022-11-13T12:39:39;26.92;;;20.00;;
8319;SDS011;4197;42.130;24.746;2022-11-13T12:42:15;28.13;;;20.57;;
8319;SDS011;4197;42.130;24.746;2022-11-13T12:44:53;25.35;;;19.80;;
8319;SDS011;4197;42.130;24.746;2022-11-13T12:47:28;25.60;;;19.48;;
8319;SDS011;4197;42.130;24.746;2022-11-13T12:49:57;26.02;;;19.23;;
8319;SDS011;4197;42.130;24.746;2022-11-13T12:52:26;24.60;;;19.05;;
8319;SDS011;4197;42.130;24.746;2022-11-13T12:55:05;26.83;;;19.58;;
8319;SDS011;4197;42.130;24.746;2022-11-13T12:57:45;25.60;;;19.98;;
8319;SDS011;4197;42.130;24.746;2022-11-13T13:00:23;29.33;;;20.10;;
8319;SDS011;4197;42.130;24.746;2022-11-13T13:05:58;25.83;;;18.65;;
8319;SDS011;4197;42.130;24.746;2022-11-13T13:08:44;26.70;;;18.92;;
8319;SDS011;4197;42.130;24.746;2022-11-13T13:11:22;26.35;;;19.45;;
8319;SDS011;4197;42.130;24.746;2022-11-13T13:14:03;25.58;;;19.52;;
8319;SDS011;4197;42.130;24.746;2022-11-13T13:16:46;22.95;;;17.83;;
8319;SDS011;4197;42.130;24.746;2022-11-13T13:19:22;21.77;;;17.17;;
8319;SDS011;4197;42.130;24.746;2022-11-13T13:21:54;23.85;;;19.08;;
8319;SDS011;4197;42.130;24.746;2022-11-13T13:24:30;24.83;;;19.13;;
8319;SDS011;4197;42.130;24.746;2022-11-13T13:27:01;27.25;;;19.67;;
8319;SDS011;4197;42.130;24.746;2022-11-13T13:29:46;28.42;;;19.80;;
8319;SDS011;4197;42.130;24.746;2022-11-13T13:32:17;24.20;;;19.23;;
8319;SDS011;4197;42.130;24.746;2022-11-13T13:34:53;25.98;;;20.65;;
8319;SDS011;4197;42.130;24.746;2022-11-13T13:37:30;26.20;;;19.60;;
8319;SDS011;4197;42.130;24.746;2022-11-13T13:40:08;24.83;;;19.83;;
8319;SDS011;4197;42.130;24.746;2022-11-13T13:42:48;23.05;;;18.40;;
8319;SDS011;4197;42.130;24.746;2022-11-13T13:45:30;27.02;;;20.00;;
8319;SDS011;4197;42.130;24.746;2022-11-13T13:48:09;24.20;;;19.33;;
8319;SDS011;4197;42.130;24.746;2022-11-13T13:50:39;26.88;;;19.58;;
8319;SDS011;4197;42.130;24.746;2022-11-13T13:53:12;27.25;;;20.17;;
8319;SDS011;4197;42.130;24.746;2022-11-13T13:55:44;25.58;;;20.00;;
8319;SDS011;4197;42.130;24.746;2022-11-13T13:58:15;31.38;;;21.48;;
8319;SDS011;4197;42.130;24.746;2022-11-13T14:00:56;29.80;;;20.63;;
8319;SDS011;4197;42.130;24.746;2022-11-13T14:03:45;29.42;;;22.02;;
8319;SDS011;4197;42.130;24.746;2022-11-13T14:06:17;26.63;;;20.67;;
8319;SDS011;4197;42.130;24.746;2022-11-13T14:08:47;31.38;;;22.10;;
8319;SDS011;4197;42.130;24.746;2022-11-13T14:11:16;29.42;;;21.17;;
8319;SDS011;4197;42.130;24.746;2022-11-13T14:13:46;33.63;;;22.23;;
8319;SDS011;4197;42.130;24.746;2022-11-13T14:16:14;29.60;;;21.13;;
8319;SDS011;4197;42.130;24.746;2022-11-13T14:18:43;27.02;;;20.83;;
8319;SDS011;4197;42.130;24.746;2022-11-13T14:21:17;29.55;;;21.05;;
8319;SDS011;4197;42.130;24.746;2022-11-13T14:23:50;26.17;;;19.77;;
8319;SDS011;4197;42.130;24.746;2022-11-13T14:26:20;28.85;;;21.10;;
8319;SDS011;4197;42.130;24.746;2022-11-13T14:28:50;29.75;;;21.42;;
8319;SDS011;4197;42.130;24.746;2022-11-13T14:31:24;28.48;;;20.48;;
8319;SDS011;4197;42.130;24.746;2022-11-13T14:33:55;32.20;;;22.90;;
8319;SDS011;4197;42.130;24.746;2022-11-13T14:36:28;31.07;;;21.60;;
8319;SDS011;4197;42.130;24.746;2022-11-13T14:38:58;32.13;;;23.47;;
8319;SDS011;4197;42.130;24.746;2022-11-13T14:41:28;32.83;;;24.37;;
8319;SDS011;4197;42.130;24.746;2022-11-13T14:44:00;31.33;;;22.70;;
8319;SDS011;4197;42.130;24.746;2022-11-13T14:46:29;32.90;;;23.73;;
8319;SDS011;4197;42.130;24.746;2022-11-13T14:49:01;35.27;;;24.97;;
8319;SDS011;4197;42.130;24.746;2022-11-13T14:51:32;35.67;;;24.03;;
8319;SDS011;4197;42.130;24.746;2022-11-13T14:54:01;31.77;;;24.20;;
8319;SDS011;4197;42.130;24.746;2022-11-13T14:56:34;35.80;;;25.60;;
8319;SDS011;4197;42.130;24.746;2022-11-13T14:59:07;34.13;;;24.67;;
8319;SDS011;4197;42.130;24.746;2022-11-13T15:01:52;40.10;;;25.83;;
8319;SDS011;4197;42.130;24.746;2022-11-13T15:04:20;38.40;;;25.67;;
8319;SDS011;4197;42.130;24.746;2022-11-13T15:06:50;39.30;;;27.50;;
8319;SDS011;4197;42.130;24.746;2022-11-13T15:09:22;40.67;;;27.60;;
8319;SDS011;4197;42.130;24.746;2022-11-13T15:11:51;43.90;;;27.90;;
8319;SDS011;4197;42.130;24.746;2022-11-13T15:14:20;41.87;;;26.60;;
8319;SDS011;4197;42.130;24.746;2022-11-13T15:16:50;34.17;;;26.30;;